sensor_id;sensor_type;location;lat;lon;timestamp;P1;durP1;ratioP1;P2;durP2;ratioP2
29412;SDS011;16389;50.126;8.450;2022-12-18T00:03:48;11.55;;;5.15;;
29412;SDS011;16389;50.126;8.450;2022-12-18T00:06:15;11.40;;;5.93;;
29412;SDS011;16389;50.126;8.450;2022-12-18T00:08:42;10.77;;;5.40;;
29412;SDS011;16389;50.126;8.450;2022-12-18T00:11:12;16.73;;;7.90;;
29412;SDS011;16389;50.126;8.450;2022-12-18T00:13:42;9.38;;;5.57;;
29412;SDS011;16389;50.126;8.450;2022-12-18T00:16:09;12.35;;;5.75;;
29412;SDS011;16389;50.126;8.450;2022-12-18T00:18:36;8.60;;;6.22;;
29412;SDS011;16389;50.126;8.450;2022-12-18T00:21:03;13.35;;;6.50;;
29412;SDS011;16389;50.126;8.450;2022-12-18T00:23:30;13.73;;;5.55;;
29412;SDS011;16389;50.126;8.450;2022-12-18T00:26:00;11.45;;;6.13;;
29412;SDS011;16389;50.126;8.450;2022-12-18T00:28:27;13.93;;;5.13;;
29412;SDS011;16389;50.126;8.450;2022-12-18T00:31:02;13.35;;;5.38;;
29412;SDS011;16389;50.126;8.450;2022-12-18T00:33:30;13.82;;;6.60;;
29412;SDS011;16389;50.126;8.450;2022-12-18T00:36:06;14.48;;;6.18;;
29412;SDS011;16389;50.126;8.450;2022-12-18T00:38:35;11.13;;;5.47;;
29412;SDS011;16389;50.126;8.450;2022-12-18T00:41:00;13.00;;;5.72;;
29412;SDS011;16389;50.126;8.450;2022-12-18T00:43:27;8.48;;;4.95;;
29412;SDS011;16389;50.126;8.450;2022-12-18T00:45:52;14.55;;;5.93;;
29412;SDS011;16389;50.126;8.450;2022-12-18T00:48:18;14.43;;;5.60;;
29412;SDS011;16389;50.126;8.450;2022-12-18T00:50:44;20.13;;;5.80;;
29412;SDS011;16389;50.126;8.450;2022-12-18T00:53:10;14.45;;;6.25;;
29412;SDS011;16389;50.126;8.450;2022-12-18T00:55:37;12.25;;;5.82;;
29412;SDS011;16389;50.126;8.450;2022-12-18T00:58:03;10.88;;;5.50;;
29412;SDS011;16389;50.126;8.450;2022-12-18T01:00:29;10.90;;;6.05;;
29412;SDS011;16389;50.126;8.450;2022-12-18T01:02:55;15.38;;;7.28;;
29412;SDS011;16389;50.126;8.450;2022-12-18T01:05:20;9.27;;;5.57;;
29412;SDS011;16389;50.126;8.450;2022-12-18T01:07:46;11.70;;;5.72;;
29412;SDS011;16389;50.126;8.450;2022-12-18T01:10:12;7.47;;;6.00;;
29412;SDS011;16389;50.126;8.450;2022-12-18T01:12:38;16.88;;;6.25;;
29412;SDS011;16389;50.126;8.450;2022-12-18T01:15:05;12.75;;;6.07;;
29412;SDS011;16389;50.126;8.450;2022-12-18T01:17:38;10.65;;;6.38;;
29412;SDS011;16389;50.126;8.450;2022-12-18T01:20:04;10.98;;;6.43;;
29412;SDS011;16389;50.126;8.450;2022-12-18T01:22:34;8.30;;;5.13;;
29412;SDS011;16389;50.126;8.450;2022-12-18T01:25:00;11.18;;;4.88;;
29412;SDS011;16389;50.126;8.450;2022-12-18T01:27:26;15.10;;;5.60;;
29412;SDS011;16389;50.126;8.450;2022-12-18T01:29:52;12.00;;;5.57;;
29412;SDS011;16389;50.126;8.450;2022-12-18T01:32:18;7.97;;;6.00;;
29412;SDS011;16389;50.126;8.450;2022-12-18T01:34:44;13.68;;;6.47;;
29412;SDS011;16389;50.126;8.450;2022-12-18T01:37:09;19.90;;;5.55;;
29412;SDS011;16389;50.126;8.450;2022-12-18T01:39:35;11.15;;;5.30;;
29412;SDS011;16389;50.126;8.450;2022-12-18T01:42:09;13.43;;;4.68;;
29412;SDS011;16389;50.126;8.450;2022-12-18T01:47:30;9.75;;;5.00;;
29412;SDS011;16389;50.126;8.450;2022-12-18T01:50:21;12.40;;;4.30;;
29412;SDS011;16389;50.126;8.450;2022-12-18T01:55:57;9.38;;;5.22;;
29412;SDS011;16389;50.126;8.450;2022-12-18T01:58:27;13.40;;;4.85;;
29412;SDS011;16389;50.126;8.450;2022-12-18T02:00:54;17.50;;;8.13;;
29412;SDS011;16389;50.126;8.450;2022-12-18T02:03:20;15.52;;;6.50;;
29412;SDS011;16389;50.126;8.450;2022-12-18T02:18:45;6.70;;;3.97;;
29412;SDS011;16389;50.126;8.450;2022-12-18T02:24:00;11.57;;;4.45;;
29412;SDS011;16389;50.126;8.450;2022-12-18T02:26:43;10.52;;;4.78;;
29412;SDS011;16389;50.126;8.450;2022-12-18T02:29:21;9.50;;;4.13;;
29412;SDS011;16389;50.126;8.450;2022-12-18T02:31:52;8.50;;;4.97;;
29412;SDS011;16389;50.126;8.450;2022-12-18T02:34:31;12.60;;;6.70;;
29412;SDS011;16389;50.126;8.450;2022-12-18T02:37:00;9.85;;;4.95;;
29412;SDS011;16389;50.126;8.450;2022-12-18T02:39:29;9.95;;;4.53;;
29412;SDS011;16389;50.126;8.450;2022-12-18T02:41:57;10.02;;;4.85;;
29412;SDS011;16389;50.126;8.450;2022-12-18T02:44:24;6.63;;;4.85;;
29412;SDS011;16389;50.126;8.450;2022-12-18T02:46:50;10.57;;;5.20;;
29412;SDS011;16389;50.126;8.450;2022-12-18T02:52:28;7.60;;;4.22;;
29412;SDS011;16389;50.126;8.450;2022-12-18T02:58:01;13.15;;;6.00;;
29412;SDS011;16389;50.126;8.450;2022-12-18T03:00:30;7.80;;;5.35;;
29412;SDS011;16389;50.126;8.450;2022-12-18T03:06:08;10.27;;;4.07;;
29412;SDS011;16389;50.126;8.450;2022-12-18T03:08:44;19.63;;;5.20;;
29412;SDS011;16389;50.126;8.450;2022-12-18T03:11:13;14.68;;;5.30;;
29412;SDS011;16389;50.126;8.450;2022-12-18T03:13:43;12.68;;;4.70;;
29412;SDS011;16389;50.126;8.450;2022-12-18T03:16:15;9.10;;;3.85;;
29412;SDS011;16389;50.126;8.450;2022-12-18T03:19:10;16.38;;;7.65;;
29412;SDS011;16389;50.126;8.450;2022-12-18T03:21:42;10.88;;;5.20;;
29412;SDS011;16389;50.126;8.450;2022-12-18T03:24:11;17.85;;;7.07;;
29412;SDS011;16389;50.126;8.450;2022-12-18T03:26:40;19.77;;;6.65;;
29412;SDS011;16389;50.126;8.450;2022-12-18T03:31:39;8.05;;;4.38;;
29412;SDS011;16389;50.126;8.450;2022-12-18T03:34:09;11.23;;;7.00;;
29412;SDS011;16389;50.126;8.450;2022-12-18T03:36:39;10.85;;;5.88;;
29412;SDS011;16389;50.126;8.450;2022-12-18T03:39:05;17.52;;;7.10;;
29412;SDS011;16389;50.126;8.450;2022-12-18T03:41:31;15.35;;;5.32;;
29412;SDS011;16389;50.126;8.450;2022-12-18T03:47:14;17.17;;;5.35;;
29412;SDS011;16389;50.126;8.450;2022-12-18T03:49:48;10.77;;;4.63;;
29412;SDS011;16389;50.126;8.450;2022-12-18T03:52:22;20.88;;;5.53;;
29412;SDS011;16389;50.126;8.450;2022-12-18T03:54:55;14.20;;;5.03;;
29412;SDS011;16389;50.126;8.450;2022-12-18T03:57:24;8.23;;;4.30;;
29412;SDS011;16389;50.126;8.450;2022-12-18T03:59:54;11.05;;;5.00;;
29412;SDS011;16389;50.126;8.450;2022-12-18T04:02:24;9.32;;;4.82;;
29412;SDS011;16389;50.126;8.450;2022-12-18T04:04:53;14.38;;;5.47;;
29412;SDS011;16389;50.126;8.450;2022-12-18T04:07:22;9.13;;;5.38;;
29412;SDS011;16389;50.126;8.450;2022-12-18T04:09:49;6.38;;;4.43;;
29412;SDS011;16389;50.126;8.450;2022-12-18T04:12:17;9.60;;;5.28;;
29412;SDS011;16389;50.126;8.450;2022-12-18T04:14:43;11.40;;;5.00;;
29412;SDS011;16389;50.126;8.450;2022-12-18T04:17:09;9.63;;;4.15;;
29412;SDS011;16389;50.126;8.450;2022-12-18T04:19:35;15.45;;;5.53;;
29412;SDS011;16389;50.126;8.450;2022-12-18T04:22:01;10.30;;;5.32;;
29412;SDS011;16389;50.126;8.450;2022-12-18T04:24:26;15.13;;;7.40;;
29412;SDS011;16389;50.126;8.450;2022-12-18T04:26:52;9.05;;;3.97;;
29412;SDS011;16389;50.126;8.450;2022-12-18T04:29:17;12.77;;;4.40;;
29412;SDS011;16389;50.126;8.450;2022-12-18T04:31:43;8.77;;;5.53;;
29412;SDS011;16389;50.126;8.450;2022-12-18T04:34:08;6.53;;;5.03;;
29412;SDS011;16389;50.126;8.450;2022-12-18T04:36:34;14.43;;;5.15;;
29412;SDS011;16389;50.126;8.450;2022-12-18T04:39:00;13.50;;;6.13;;
29412;SDS011;16389;50.126;8.450;2022-12-18T04:41:25;13.07;;;5.75;;
29412;SDS011;16389;50.126;8.450;2022-12-18T04:43:51;13.95;;;6.95;;
29412;SDS011;16389;50.126;8.450;2022-12-18T04:46:16;16.67;;;4.72;;
29412;SDS011;16389;50.126;8.450;2022-12-18T04:48:44;19.80;;;6.00;;
29412;SDS011;16389;50.126;8.450;2022-12-18T04:51:11;12.65;;;5.45;;
29412;SDS011;16389;50.126;8.450;2022-12-18T04:53:37;13.15;;;5.43;;
29412;SDS011;16389;50.126;8.450;2022-12-18T04:56:07;15.55;;;7.28;;
29412;SDS011;16389;50.126;8.450;2022-12-18T04:58:38;14.85;;;5.40;;
29412;SDS011;16389;50.126;8.450;2022-12-18T05:01:05;14.52;;;6.28;;
29412;SDS011;16389;50.126;8.450;2022-12-18T05:03:32;10.80;;;4.95;;
29412;SDS011;16389;50.126;8.450;2022-12-18T05:05:58;17.20;;;6.45;;
29412;SDS011;16389;50.126;8.450;2022-12-18T05:08:24;11.15;;;7.53;;
29412;SDS011;16389;50.126;8.450;2022-12-18T05:10:49;14.32;;;6.93;;
29412;SDS011;16389;50.126;8.450;2022-12-18T05:13:34;12.45;;;6.68;;
29412;SDS011;16389;50.126;8.450;2022-12-18T05:16:01;15.38;;;5.03;;
29412;SDS011;16389;50.126;8.450;2022-12-18T05:18:27;14.35;;;7.47;;
29412;SDS011;16389;50.126;8.450;2022-12-18T05:20:53;12.75;;;5.45;;
29412;SDS011;16389;50.126;8.450;2022-12-18T05:23:19;14.73;;;7.45;;
29412;SDS011;16389;50.126;8.450;2022-12-18T05:25:59;12.02;;;5.80;;
29412;SDS011;16389;50.126;8.450;2022-12-18T05:30:53;10.65;;;4.72;;
29412;SDS011;16389;50.126;8.450;2022-12-18T05:33:21;8.20;;;5.60;;
29412;SDS011;16389;50.126;8.450;2022-12-18T05:35:51;11.35;;;5.13;;
29412;SDS011;16389;50.126;8.450;2022-12-18T05:40:44;11.55;;;4.22;;
29412;SDS011;16389;50.126;8.450;2022-12-18T05:43:09;10.35;;;4.57;;
29412;SDS011;16389;50.126;8.450;2022-12-18T05:45:38;8.15;;;4.47;;
29412;SDS011;16389;50.126;8.450;2022-12-18T05:48:04;18.55;;;6.63;;
29412;SDS011;16389;50.126;8.450;2022-12-18T05:50:30;19.95;;;6.15;;
29412;SDS011;16389;50.126;8.450;2022-12-18T05:52:58;7.30;;;4.53;;
29412;SDS011;16389;50.126;8.450;2022-12-18T05:55:23;14.60;;;6.97;;
29412;SDS011;16389;50.126;8.450;2022-12-18T05:57:49;24.42;;;6.10;;
29412;SDS011;16389;50.126;8.450;2022-12-18T06:00:15;17.42;;;7.05;;
29412;SDS011;16389;50.126;8.450;2022-12-18T06:02:40;17.90;;;6.53;;
29412;SDS011;16389;50.126;8.450;2022-12-18T06:05:06;14.57;;;6.85;;
29412;SDS011;16389;50.126;8.450;2022-12-18T06:07:32;9.07;;;6.10;;
29412;SDS011;16389;50.126;8.450;2022-12-18T06:09:58;11.27;;;6.30;;
29412;SDS011;16389;50.126;8.450;2022-12-18T06:12:23;17.90;;;6.90;;
29412;SDS011;16389;50.126;8.450;2022-12-18T06:14:49;17.50;;;5.70;;
29412;SDS011;16389;50.126;8.450;2022-12-18T06:17:14;16.48;;;6.15;;
29412;SDS011;16389;50.126;8.450;2022-12-18T06:19:40;16.17;;;6.22;;
29412;SDS011;16389;50.126;8.450;2022-12-18T06:22:05;14.35;;;5.50;;
29412;SDS011;16389;50.126;8.450;2022-12-18T06:24:31;7.93;;;5.50;;
29412;SDS011;16389;50.126;8.450;2022-12-18T06:26:58;17.95;;;6.32;;
29412;SDS011;16389;50.126;8.450;2022-12-18T06:29:23;14.45;;;5.50;;
29412;SDS011;16389;50.126;8.450;2022-12-18T06:31:49;14.00;;;7.50;;
29412;SDS011;16389;50.126;8.450;2022-12-18T06:34:14;12.82;;;5.50;;
29412;SDS011;16389;50.126;8.450;2022-12-18T06:36:40;15.18;;;6.90;;
29412;SDS011;16389;50.126;8.450;2022-12-18T06:39:05;11.52;;;6.53;;
29412;SDS011;16389;50.126;8.450;2022-12-18T06:41:31;12.38;;;6.72;;
29412;SDS011;16389;50.126;8.450;2022-12-18T06:43:57;11.20;;;4.82;;
29412;SDS011;16389;50.126;8.450;2022-12-18T06:46:22;14.75;;;5.90;;
29412;SDS011;16389;50.126;8.450;2022-12-18T06:48:48;10.95;;;5.15;;
29412;SDS011;16389;50.126;8.450;2022-12-18T06:51:15;12.07;;;6.00;;
29412;SDS011;16389;50.126;8.450;2022-12-18T06:53:42;7.05;;;5.05;;
29412;SDS011;16389;50.126;8.450;2022-12-18T06:56:07;15.48;;;5.70;;
29412;SDS011;16389;50.126;8.450;2022-12-18T06:58:33;12.00;;;5.53;;
29412;SDS011;16389;50.126;8.450;2022-12-18T07:01:02;12.95;;;7.07;;
29412;SDS011;16389;50.126;8.450;2022-12-18T07:03:29;9.35;;;5.32;;
29412;SDS011;16389;50.126;8.450;2022-12-18T07:05:55;17.27;;;5.97;;
29412;SDS011;16389;50.126;8.450;2022-12-18T07:08:21;13.10;;;6.20;;
29412;SDS011;16389;50.126;8.450;2022-12-18T07:10:47;6.60;;;4.00;;
29412;SDS011;16389;50.126;8.450;2022-12-18T07:13:14;6.97;;;4.82;;
29412;SDS011;16389;50.126;8.450;2022-12-18T07:15:40;12.20;;;4.72;;
29412;SDS011;16389;50.126;8.450;2022-12-18T07:18:06;13.52;;;5.35;;
29412;SDS011;16389;50.126;8.450;2022-12-18T07:20:31;17.33;;;4.85;;
29412;SDS011;16389;50.126;8.450;2022-12-18T07:22:57;8.68;;;4.45;;
29412;SDS011;16389;50.126;8.450;2022-12-18T07:25:22;17.00;;;5.15;;
29412;SDS011;16389;50.126;8.450;2022-12-18T07:27:48;24.25;;;5.60;;
29412;SDS011;16389;50.126;8.450;2022-12-18T07:30:14;9.65;;;5.38;;
29412;SDS011;16389;50.126;8.450;2022-12-18T07:32:39;15.27;;;7.20;;
29412;SDS011;16389;50.126;8.450;2022-12-18T07:35:05;14.27;;;6.55;;
29412;SDS011;16389;50.126;8.450;2022-12-18T07:37:31;11.48;;;6.00;;
29412;SDS011;16389;50.126;8.450;2022-12-18T07:39:56;14.27;;;6.93;;
29412;SDS011;16389;50.126;8.450;2022-12-18T07:42:22;16.50;;;5.70;;
29412;SDS011;16389;50.126;8.450;2022-12-18T07:44:57;6.38;;;5.47;;
29412;SDS011;16389;50.126;8.450;2022-12-18T07:47:23;16.30;;;5.47;;
29412;SDS011;16389;50.126;8.450;2022-12-18T07:49:49;15.68;;;6.03;;
29412;SDS011;16389;50.126;8.450;2022-12-18T07:52:15;7.60;;;5.53;;
29412;SDS011;16389;50.126;8.450;2022-12-18T07:54:40;11.65;;;6.80;;
29412;SDS011;16389;50.126;8.450;2022-12-18T07:57:07;14.40;;;5.55;;
29412;SDS011;16389;50.126;8.450;2022-12-18T07:59:32;15.13;;;6.57;;
29412;SDS011;16389;50.126;8.450;2022-12-18T08:01:58;9.43;;;5.90;;
29412;SDS011;16389;50.126;8.450;2022-12-18T08:04:24;13.98;;;6.70;;
29412;SDS011;16389;50.126;8.450;2022-12-18T08:06:50;14.70;;;7.25;;
29412;SDS011;16389;50.126;8.450;2022-12-18T08:09:15;14.52;;;7.00;;
29412;SDS011;16389;50.126;8.450;2022-12-18T08:11:41;11.73;;;6.72;;
29412;SDS011;16389;50.126;8.450;2022-12-18T08:14:07;14.30;;;6.95;;
29412;SDS011;16389;50.126;8.450;2022-12-18T08:16:32;15.38;;;6.88;;
29412;SDS011;16389;50.126;8.450;2022-12-18T08:18:58;11.38;;;6.28;;
29412;SDS011;16389;50.126;8.450;2022-12-18T08:21:25;13.15;;;7.07;;
29412;SDS011;16389;50.126;8.450;2022-12-18T08:23:53;10.55;;;6.93;;
29412;SDS011;16389;50.126;8.450;2022-12-18T08:26:20;15.30;;;6.97;;
29412;SDS011;16389;50.126;8.450;2022-12-18T08:28:46;14.48;;;7.20;;
29412;SDS011;16389;50.126;8.450;2022-12-18T08:31:12;15.32;;;7.05;;
29412;SDS011;16389;50.126;8.450;2022-12-18T08:33:38;20.52;;;8.50;;
29412;SDS011;16389;50.126;8.450;2022-12-18T08:36:05;24.60;;;9.60;;
29412;SDS011;16389;50.126;8.450;2022-12-18T08:38:32;18.15;;;7.63;;
29412;SDS011;16389;50.126;8.450;2022-12-18T08:41:08;21.10;;;8.25;;
29412;SDS011;16389;50.126;8.450;2022-12-18T08:43:35;19.35;;;6.50;;
29412;SDS011;16389;50.126;8.450;2022-12-18T08:46:20;13.27;;;6.70;;
29412;SDS011;16389;50.126;8.450;2022-12-18T08:48:47;19.65;;;7.85;;
29412;SDS011;16389;50.126;8.450;2022-12-18T08:51:15;22.02;;;8.30;;
29412;SDS011;16389;50.126;8.450;2022-12-18T08:53:42;19.10;;;9.30;;
29412;SDS011;16389;50.126;8.450;2022-12-18T08:56:08;25.90;;;9.52;;
29412;SDS011;16389;50.126;8.450;2022-12-18T08:58:34;19.15;;;7.50;;
29412;SDS011;16389;50.126;8.450;2022-12-18T09:01:03;20.02;;;7.80;;
29412;SDS011;16389;50.126;8.450;2022-12-18T09:03:29;24.08;;;8.43;;
29412;SDS011;16389;50.126;8.450;2022-12-18T09:05:56;18.50;;;8.60;;
29412;SDS011;16389;50.126;8.450;2022-12-18T09:08:21;21.45;;;8.13;;
29412;SDS011;16389;50.126;8.450;2022-12-18T09:10:47;18.85;;;7.10;;
29412;SDS011;16389;50.126;8.450;2022-12-18T09:13:15;16.23;;;8.07;;
29412;SDS011;16389;50.126;8.450;2022-12-18T09:15:42;15.82;;;9.05;;
29412;SDS011;16389;50.126;8.450;2022-12-18T09:18:12;18.65;;;8.30;;
29412;SDS011;16389;50.126;8.450;2022-12-18T09:20:39;14.68;;;7.05;;
29412;SDS011;16389;50.126;8.450;2022-12-18T09:23:05;13.77;;;7.53;;
29412;SDS011;16389;50.126;8.450;2022-12-18T09:25:31;12.13;;;7.18;;
29412;SDS011;16389;50.126;8.450;2022-12-18T09:28:12;24.33;;;7.40;;
29412;SDS011;16389;50.126;8.450;2022-12-18T09:30:43;12.00;;;6.97;;
29412;SDS011;16389;50.126;8.450;2022-12-18T09:33:14;16.20;;;6.80;;
29412;SDS011;16389;50.126;8.450;2022-12-18T09:35:42;14.13;;;8.05;;
29412;SDS011;16389;50.126;8.450;2022-12-18T09:38:09;12.00;;;7.15;;
29412;SDS011;16389;50.126;8.450;2022-12-18T09:40:45;14.63;;;7.43;;
29412;SDS011;16389;50.126;8.450;2022-12-18T09:43:33;14.60;;;7.43;;
29412;SDS011;16389;50.126;8.450;2022-12-18T09:46:03;14.23;;;8.15;;
29412;SDS011;16389;50.126;8.450;2022-12-18T09:48:36;21.95;;;8.98;;
29412;SDS011;16389;50.126;8.450;2022-12-18T09:51:11;20.23;;;8.00;;
29412;SDS011;16389;50.126;8.450;2022-12-18T09:54:11;17.00;;;6.60;;
29412;SDS011;16389;50.126;8.450;2022-12-18T09:57:00;18.17;;;7.65;;
29412;SDS011;16389;50.126;8.450;2022-12-18T09:59:27;12.05;;;7.47;;
29412;SDS011;16389;50.126;8.450;2022-12-18T10:02:14;10.27;;;6.68;;
29412;SDS011;16389;50.126;8.450;2022-12-18T10:04:40;21.52;;;8.15;;
29412;SDS011;16389;50.126;8.450;2022-12-18T10:07:14;20.65;;;8.05;;
29412;SDS011;16389;50.126;8.450;2022-12-18T10:09:59;19.27;;;8.68;;
29412;SDS011;16389;50.126;8.450;2022-12-18T10:15:50;17.10;;;6.75;;
29412;SDS011;16389;50.126;8.450;2022-12-18T10:21:21;17.20;;;7.85;;
29412;SDS011;16389;50.126;8.450;2022-12-18T10:26:40;19.50;;;8.68;;
29412;SDS011;16389;50.126;8.450;2022-12-18T10:29:11;18.80;;;8.10;;
29412;SDS011;16389;50.126;8.450;2022-12-18T10:31:38;19.80;;;9.07;;
29412;SDS011;16389;50.126;8.450;2022-12-18T10:34:04;20.40;;;8.88;;
29412;SDS011;16389;50.126;8.450;2022-12-18T10:39:16;21.63;;;8.18;;
29412;SDS011;16389;50.126;8.450;2022-12-18T10:41:50;12.50;;;7.22;;
29412;SDS011;16389;50.126;8.450;2022-12-18T10:46:48;20.15;;;11.45;;
29412;SDS011;16389;50.126;8.450;2022-12-18T10:49:25;21.20;;;9.80;;
29412;SDS011;16389;50.126;8.450;2022-12-18T10:54:48;28.85;;;10.75;;
29412;SDS011;16389;50.126;8.450;2022-12-18T10:59:55;18.58;;;8.30;;
29412;SDS011;16389;50.126;8.450;2022-12-18T11:02:33;21.20;;;10.07;;
29412;SDS011;16389;50.126;8.450;2022-12-18T11:05:00;22.30;;;9.77;;
29412;SDS011;16389;50.126;8.450;2022-12-18T11:08:12;18.83;;;9.13;;
29412;SDS011;16389;50.126;8.450;2022-12-18T11:10:20;16.45;;;9.35;;
29412;SDS011;16389;50.126;8.450;2022-12-18T11:12:47;19.70;;;9.15;;
29412;SDS011;16389;50.126;8.450;2022-12-18T11:15:15;25.15;;;9.73;;
29412;SDS011;16389;50.126;8.450;2022-12-18T11:17:59;27.98;;;11.02;;
29412;SDS011;16389;50.126;8.450;2022-12-18T11:20:32;34.03;;;11.05;;
29412;SDS011;16389;50.126;8.450;2022-12-18T11:23:00;20.38;;;10.15;;
29412;SDS011;16389;50.126;8.450;2022-12-18T11:25:35;31.08;;;9.50;;
29412;SDS011;16389;50.126;8.450;2022-12-18T11:28:02;26.35;;;10.68;;
29412;SDS011;16389;50.126;8.450;2022-12-18T11:30:31;21.98;;;10.88;;
29412;SDS011;16389;50.126;8.450;2022-12-18T11:35:47;21.33;;;7.63;;
29412;SDS011;16389;50.126;8.450;2022-12-18T11:38:22;17.63;;;9.68;;
29412;SDS011;16389;50.126;8.450;2022-12-18T11:43:53;28.08;;;9.40;;
29412;SDS011;16389;50.126;8.450;2022-12-18T11:46:29;20.23;;;9.30;;
29412;SDS011;16389;50.126;8.450;2022-12-18T11:49:11;23.70;;;9.88;;
29412;SDS011;16389;50.126;8.450;2022-12-18T11:54:26;15.75;;;9.30;;
29412;SDS011;16389;50.126;8.450;2022-12-18T11:56:56;24.52;;;9.13;;
29412;SDS011;16389;50.126;8.450;2022-12-18T11:59:32;27.17;;;10.88;;
29412;SDS011;16389;50.126;8.450;2022-12-18T12:07:27;27.67;;;10.10;;
29412;SDS011;16389;50.126;8.450;2022-12-18T12:10:24;35.63;;;12.30;;
29412;SDS011;16389;50.126;8.450;2022-12-18T12:13:01;22.10;;;9.70;;
29412;SDS011;16389;50.126;8.450;2022-12-18T12:15:39;22.95;;;10.15;;
29412;SDS011;16389;50.126;8.450;2022-12-18T12:18:18;22.85;;;9.68;;
29412;SDS011;16389;50.126;8.450;2022-12-18T12:26:40;21.95;;;9.52;;
29412;SDS011;16389;50.126;8.450;2022-12-18T12:34:26;20.20;;;8.95;;
29412;SDS011;16389;50.126;8.450;2022-12-18T12:37:11;25.33;;;10.10;;
29412;SDS011;16389;50.126;8.450;2022-12-18T12:40:01;26.30;;;9.40;;
29412;SDS011;16389;50.126;8.450;2022-12-18T12:42:32;32.47;;;9.65;;
29412;SDS011;16389;50.126;8.450;2022-12-18T12:45:23;23.73;;;8.68;;
29412;SDS011;16389;50.126;8.450;2022-12-18T12:47:58;22.27;;;8.93;;
29412;SDS011;16389;50.126;8.450;2022-12-18T12:50:26;27.13;;;10.25;;
29412;SDS011;16389;50.126;8.450;2022-12-18T12:52:53;30.52;;;10.27;;
29412;SDS011;16389;50.126;8.450;2022-12-18T12:55:22;30.42;;;10.43;;
29412;SDS011;16389;50.126;8.450;2022-12-18T12:57:54;24.40;;;10.85;;
29412;SDS011;16389;50.126;8.450;2022-12-18T13:00:39;24.52;;;9.32;;
29412;SDS011;16389;50.126;8.450;2022-12-18T13:03:34;27.70;;;10.35;;
29412;SDS011;16389;50.126;8.450;2022-12-18T13:06:12;22.80;;;9.00;;
29412;SDS011;16389;50.126;8.450;2022-12-18T13:08:52;29.83;;;10.45;;
29412;SDS011;16389;50.126;8.450;2022-12-18T13:11:37;39.10;;;13.07;;
29412;SDS011;16389;50.126;8.450;2022-12-18T13:14:43;24.65;;;10.63;;
29412;SDS011;16389;50.126;8.450;2022-12-18T13:19:56;26.10;;;11.70;;
29412;SDS011;16389;50.126;8.450;2022-12-18T13:22:37;21.17;;;9.32;;
29412;SDS011;16389;50.126;8.450;2022-12-18T13:40:57;20.63;;;8.05;;
29412;SDS011;16389;50.126;8.450;2022-12-18T13:49:01;17.75;;;7.60;;
29412;SDS011;16389;50.126;8.450;2022-12-18T13:51:38;20.02;;;8.65;;
29412;SDS011;16389;50.126;8.450;2022-12-18T13:56:45;24.77;;;9.07;;
29412;SDS011;16389;50.126;8.450;2022-12-18T13:59:20;22.23;;;10.32;;
29412;SDS011;16389;50.126;8.450;2022-12-18T14:01:49;28.25;;;16.25;;
29412;SDS011;16389;50.126;8.450;2022-12-18T14:04:21;40.30;;;16.15;;
29412;SDS011;16389;50.126;8.450;2022-12-18T14:06:49;34.95;;;13.05;;
29412;SDS011;16389;50.126;8.450;2022-12-18T14:09:20;28.30;;;10.10;;
29412;SDS011;16389;50.126;8.450;2022-12-18T14:11:50;28.25;;;10.80;;
29412;SDS011;16389;50.126;8.450;2022-12-18T14:14:16;22.98;;;13.27;;
29412;SDS011;16389;50.126;8.450;2022-12-18T14:16:44;22.35;;;10.15;;
29412;SDS011;16389;50.126;8.450;2022-12-18T14:19:15;31.08;;;12.13;;
29412;SDS011;16389;50.126;8.450;2022-12-18T14:21:49;31.70;;;11.57;;
29412;SDS011;16389;50.126;8.450;2022-12-18T14:24:20;19.83;;;8.52;;
29412;SDS011;16389;50.126;8.450;2022-12-18T14:26:47;38.60;;;11.63;;
29412;SDS011;16389;50.126;8.450;2022-12-18T14:31:44;26.08;;;10.10;;
29412;SDS011;16389;50.126;8.450;2022-12-18T14:34:16;26.20;;;9.98;;
29412;SDS011;16389;50.126;8.450;2022-12-18T14:36:44;17.55;;;9.23;;
29412;SDS011;16389;50.126;8.450;2022-12-18T14:39:17;26.13;;;10.15;;
29412;SDS011;16389;50.126;8.450;2022-12-18T14:41:43;29.83;;;12.63;;
29412;SDS011;16389;50.126;8.450;2022-12-18T14:44:10;28.65;;;10.38;;
29412;SDS011;16389;50.126;8.450;2022-12-18T14:46:47;40.13;;;9.07;;
29412;SDS011;16389;50.126;8.450;2022-12-18T14:51:54;23.90;;;9.10;;
29412;SDS011;16389;50.126;8.450;2022-12-18T14:54:22;27.35;;;10.48;;
29412;SDS011;16389;50.126;8.450;2022-12-18T14:56:50;18.20;;;8.68;;
29412;SDS011;16389;50.126;8.450;2022-12-18T14:59:21;40.45;;;16.17;;
29412;SDS011;16389;50.126;8.450;2022-12-18T15:02:10;27.83;;;15.65;;
29412;SDS011;16389;50.126;8.450;2022-12-18T15:04:43;31.52;;;12.40;;
29412;SDS011;16389;50.126;8.450;2022-12-18T15:09:38;25.17;;;11.18;;
29412;SDS011;16389;50.126;8.450;2022-12-18T15:12:15;34.60;;;10.82;;
29412;SDS011;16389;50.126;8.450;2022-12-18T15:14:49;19.67;;;8.48;;
29412;SDS011;16389;50.126;8.450;2022-12-18T15:17:19;19.05;;;8.23;;
29412;SDS011;16389;50.126;8.450;2022-12-18T15:19:47;21.52;;;8.38;;
29412;SDS011;16389;50.126;8.450;2022-12-18T15:22:33;17.00;;;10.10;;
29412;SDS011;16389;50.126;8.450;2022-12-18T15:25:00;37.67;;;9.35;;
29412;SDS011;16389;50.126;8.450;2022-12-18T15:27:32;26.33;;;10.98;;
29412;SDS011;16389;50.126;8.450;2022-12-18T15:32:35;113.15;;;33.05;;
29412;SDS011;16389;50.126;8.450;2022-12-18T15:35:13;60.22;;;19.25;;
29412;SDS011;16389;50.126;8.450;2022-12-18T15:37:41;49.17;;;17.03;;
29412;SDS011;16389;50.126;8.450;2022-12-18T15:40:08;26.95;;;11.48;;
29412;SDS011;16389;50.126;8.450;2022-12-18T15:42:38;31.48;;;11.73;;
29412;SDS011;16389;50.126;8.450;2022-12-18T15:45:22;26.48;;;9.95;;
29412;SDS011;16389;50.126;8.450;2022-12-18T15:47:47;24.23;;;9.20;;
29412;SDS011;16389;50.126;8.450;2022-12-18T15:50:13;29.40;;;10.18;;
29412;SDS011;16389;50.126;8.450;2022-12-18T15:52:40;26.27;;;10.05;;
29412;SDS011;16389;50.126;8.450;2022-12-18T15:55:14;47.57;;;12.30;;
29412;SDS011;16389;50.126;8.450;2022-12-18T15:58:04;20.75;;;8.77;;
29412;SDS011;16389;50.126;8.450;2022-12-18T16:00:31;25.52;;;11.48;;
29412;SDS011;16389;50.126;8.450;2022-12-18T16:02:59;24.92;;;10.32;;
29412;SDS011;16389;50.126;8.450;2022-12-18T16:05:24;23.48;;;9.25;;
29412;SDS011;16389;50.126;8.450;2022-12-18T16:07:52;16.10;;;9.98;;
29412;SDS011;16389;50.126;8.450;2022-12-18T16:10:18;26.67;;;10.68;;
29412;SDS011;16389;50.126;8.450;2022-12-18T16:12:44;25.05;;;9.80;;
29412;SDS011;16389;50.126;8.450;2022-12-18T16:15:10;22.52;;;10.98;;
29412;SDS011;16389;50.126;8.450;2022-12-18T16:17:38;98.65;;;31.58;;
29412;SDS011;16389;50.126;8.450;2022-12-18T16:20:05;41.47;;;15.90;;
29412;SDS011;16389;50.126;8.450;2022-12-18T16:22:33;30.13;;;10.80;;
29412;SDS011;16389;50.126;8.450;2022-12-18T16:24:58;26.40;;;11.02;;
29412;SDS011;16389;50.126;8.450;2022-12-18T16:27:24;21.73;;;10.68;;
29412;SDS011;16389;50.126;8.450;2022-12-18T16:29:50;38.30;;;14.88;;
29412;SDS011;16389;50.126;8.450;2022-12-18T16:32:20;44.90;;;15.13;;
29412;SDS011;16389;50.126;8.450;2022-12-18T16:34:46;24.48;;;13.02;;
29412;SDS011;16389;50.126;8.450;2022-12-18T16:37:12;26.42;;;13.38;;
29412;SDS011;16389;50.126;8.450;2022-12-18T16:39:41;33.80;;;14.20;;
29412;SDS011;16389;50.126;8.450;2022-12-18T16:42:11;21.50;;;10.63;;
29412;SDS011;16389;50.126;8.450;2022-12-18T16:44:39;22.55;;;7.90;;
29412;SDS011;16389;50.126;8.450;2022-12-18T16:47:05;24.98;;;9.85;;
29412;SDS011;16389;50.126;8.450;2022-12-18T16:49:30;24.55;;;10.55;;
29412;SDS011;16389;50.126;8.450;2022-12-18T16:51:56;21.92;;;9.48;;
29412;SDS011;16389;50.126;8.450;2022-12-18T16:54:22;17.23;;;9.85;;